sensor_id;sensor_type;location;lat;lon;timestamp;pressure;altitude;pressure_sealevel;temperature;humidity
16694;BME280;39538;52.196;9.892;2022-12-24T00:02:20;99293.34;;;6.49;100.00
16694;BME280;39538;52.196;9.892;2022-12-24T00:04:46;99288.16;;;6.48;100.00
16694;BME280;39538;52.196;9.892;2022-12-24T00:07:12;99297.78;;;6.49;100.00
16694;BME280;39538;52.196;9.892;2022-12-24T00:09:39;99293.56;;;6.46;100.00
16694;BME280;39538;52.196;9.892;2022-12-24T00:12:06;99287.91;;;6.40;100.00
16694;BME280;39538;52.196;9.892;2022-12-24T00:14:33;99284.94;;;6.44;100.00
16694;BME280;39538;52.196;9.892;2022-12-24T00:17:00;99292.50;;;6.49;100.00
16694;BME280;39538;52.196;9.892;2022-12-24T00:19:26;99286.88;;;6.53;100.00
16694;BME280;39538;52.196;9.892;2022-12-24T00:21:53;99296.47;;;6.54;100.00
16694;BME280;39538;52.196;9.892;2022-12-24T00:24:19;99295.41;;;6.57;100.00
16694;BME280;39538;52.196;9.892;2022-12-24T00:26:46;99289.28;;;6.57;100.00
16694;BME280;39538;52.196;9.892;2022-12-24T00:29:12;99289.78;;;6.38;100.00
16694;BME280;39538;52.196;9.892;2022-12-24T00:31:40;99275.50;;;6.29;100.00
16694;BME280;39538;52.196;9.892;2022-12-24T00:34:06;99289.41;;;6.31;100.00
16694;BME280;39538;52.196;9.892;2022-12-24T00:36:33;99298.13;;;6.31;100.00
16694;BME280;39538;52.196;9.892;2022-12-24T00:38:59;99291.84;;;6.34;100.00
16694;BME280;39538;52.196;9.892;2022-12-24T00:41:25;99284.53;;;6.38;100.00
16694;BME280;39538;52.196;9.892;2022-12-24T00:43:54;99300.84;;;6.43;100.00
16694;BME280;39538;52.196;9.892;2022-12-24T00:46:21;99299.00;;;6.32;100.00
16694;BME280;39538;52.196;9.892;2022-12-24T00:48:49;99295.34;;;6.22;100.00
16694;BME280;39538;52.196;9.892;2022-12-24T00:51:16;99298.47;;;6.27;100.00
16694;BME280;39538;52.196;9.892;2022-12-24T00:53:43;99298.59;;;6.25;100.00
16694;BME280;39538;52.196;9.892;2022-12-24T00:56:09;99303.25;;;6.22;100.00
16694;BME280;39538;52.196;9.892;2022-12-24T00:58:36;99319.38;;;6.17;100.00
16694;BME280;39538;52.196;9.892;2022-12-24T01:01:03;99314.75;;;6.21;100.00
16694;BME280;39538;52.196;9.892;2022-12-24T01:03:29;99328.09;;;6.30;100.00
16694;BME280;39538;52.196;9.892;2022-12-24T01:06:04;99318.53;;;6.29;100.00
16694;BME280;39538;52.196;9.892;2022-12-24T01:08:30;99319.47;;;6.28;100.00
16694;BME280;39538;52.196;9.892;2022-12-24T01:10:57;99323.56;;;6.32;100.00
16694;BME280;39538;52.196;9.892;2022-12-24T01:13:24;99327.44;;;6.40;100.00
16694;BME280;39538;52.196;9.892;2022-12-24T01:15:51;99333.22;;;6.45;100.00
16694;BME280;39538;52.196;9.892;2022-12-24T01:18:17;99326.03;;;6.47;100.00
16694;BME280;39538;52.196;9.892;2022-12-24T01:20:43;99337.81;;;6.54;100.00
16694;BME280;39538;52.196;9.892;2022-12-24T01:23:11;99334.25;;;6.55;100.00
16694;BME280;39538;52.196;9.892;2022-12-24T01:25:38;99342.84;;;6.57;100.00
16694;BME280;39538;52.196;9.892;2022-12-24T01:28:05;99352.25;;;6.61;100.00
16694;BME280;39538;52.196;9.892;2022-12-24T01:30:31;99341.59;;;6.63;100.00
16694;BME280;39538;52.196;9.892;2022-12-24T01:32:58;99344.84;;;6.66;100.00
16694;BME280;39538;52.196;9.892;2022-12-24T01:35:24;99342.81;;;6.70;100.00
16694;BME280;39538;52.196;9.892;2022-12-24T01:37:50;99343.91;;;6.67;100.00
16694;BME280;39538;52.196;9.892;2022-12-24T01:40:18;99349.00;;;6.58;100.00
16694;BME280;39538;52.196;9.892;2022-12-24T01:43:08;99363.03;;;6.58;100.00
16694;BME280;39538;52.196;9.892;2022-12-24T01:45:50;99361.44;;;6.56;100.00
16694;BME280;39538;52.196;9.892;2022-12-24T01:48:22;99367.56;;;6.56;100.00
16694;BME280;39538;52.196;9.892;2022-12-24T01:50:54;99368.63;;;6.53;100.00
16694;BME280;39538;52.196;9.892;2022-12-24T01:53:22;99366.94;;;6.52;100.00
16694;BME280;39538;52.196;9.892;2022-12-24T01:55:51;99365.91;;;6.55;100.00
16694;BME280;39538;52.196;9.892;2022-12-24T01:58:19;99377.38;;;6.54;100.00
16694;BME280;39538;52.196;9.892;2022-12-24T02:00:46;99368.63;;;6.53;100.00
16694;BME280;39538;52.196;9.892;2022-12-24T02:03:13;99372.44;;;6.73;100.00
16694;BME280;39538;52.196;9.892;2022-12-24T02:05:45;99371.22;;;6.90;100.00
16694;BME280;39538;52.196;9.892;2022-12-24T02:08:13;99377.16;;;7.05;100.00
16694;BME280;39538;52.196;9.892;2022-12-24T02:10:39;99374.81;;;7.13;100.00
16694;BME280;39538;52.196;9.892;2022-12-24T02:13:07;99379.88;;;7.28;100.00
16694;BME280;39538;52.196;9.892;2022-12-24T02:15:41;99373.31;;;7.45;100.00
16694;BME280;39538;52.196;9.892;2022-12-24T02:18:20;99377.91;;;7.54;100.00
16694;BME280;39538;52.196;9.892;2022-12-24T02:21:14;99383.59;;;7.72;100.00
16694;BME280;39538;52.196;9.892;2022-12-24T02:24:01;99389.72;;;7.84;100.00
16694;BME280;39538;52.196;9.892;2022-12-24T02:29:54;99395.25;;;8.03;100.00
16694;BME280;39538;52.196;9.892;2022-12-24T02:32:27;99394.91;;;8.08;100.00
16694;BME280;39538;52.196;9.892;2022-12-24T02:35:01;99401.88;;;8.09;100.00
16694;BME280;39538;52.196;9.892;2022-12-24T02:37:33;99400.91;;;8.10;100.00
16694;BME280;39538;52.196;9.892;2022-12-24T02:40:06;99399.94;;;8.11;100.00
16694;BME280;39538;52.196;9.892;2022-12-24T02:42:37;99401.28;;;8.16;100.00
16694;BME280;39538;52.196;9.892;2022-12-24T02:45:08;99403.69;;;8.19;100.00
16694;BME280;39538;52.196;9.892;2022-12-24T02:47:36;99392.84;;;8.22;100.00
16694;BME280;39538;52.196;9.892;2022-12-24T02:50:06;99407.78;;;8.23;100.00
16694;BME280;39538;52.196;9.892;2022-12-24T02:52:34;99400.41;;;8.27;100.00
16694;BME280;39538;52.196;9.892;2022-12-24T02:55:04;99409.31;;;8.26;100.00
16694;BME280;39538;52.196;9.892;2022-12-24T02:57:42;99417.16;;;8.28;100.00
16694;BME280;39538;52.196;9.892;2022-12-24T03:00:16;99416.28;;;8.27;100.00
16694;BME280;39538;52.196;9.892;2022-12-24T03:03:11;99414.97;;;8.33;100.00
16694;BME280;39538;52.196;9.892;2022-12-24T03:05:47;99420.13;;;8.34;100.00
16694;BME280;39538;52.196;9.892;2022-12-24T03:08:22;99428.69;;;8.38;100.00
16694;BME280;39538;52.196;9.892;2022-12-24T03:10:56;99421.38;;;8.41;100.00
16694;BME280;39538;52.196;9.892;2022-12-24T03:13:26;99422.31;;;8.40;100.00
16694;BME280;39538;52.196;9.892;2022-12-24T03:15:55;99437.38;;;8.40;100.00
16694;BME280;39538;52.196;9.892;2022-12-24T03:18:23;99427.63;;;8.40;100.00
16694;BME280;39538;52.196;9.892;2022-12-24T03:20:55;99438.19;;;8.40;100.00
16694;BME280;39538;52.196;9.892;2022-12-24T03:23:23;99460.91;;;8.43;100.00
16694;BME280;39538;52.196;9.892;2022-12-24T03:25:49;99453.81;;;8.43;100.00
16694;BME280;39538;52.196;9.892;2022-12-24T03:28:18;99445.03;;;8.43;100.00
16694;BME280;39538;52.196;9.892;2022-12-24T03:30:46;99458.28;;;8.43;100.00
16694;BME280;39538;52.196;9.892;2022-12-24T03:33:15;99467.28;;;8.40;100.00
16694;BME280;39538;52.196;9.892;2022-12-24T03:35:42;99463.88;;;8.38;100.00
16694;BME280;39538;52.196;9.892;2022-12-24T03:38:08;99475.94;;;8.42;100.00
16694;BME280;39538;52.196;9.892;2022-12-24T03:40:35;99476.94;;;8.41;100.00
16694;BME280;39538;52.196;9.892;2022-12-24T03:43:01;99481.34;;;8.41;100.00
16694;BME280;39538;52.196;9.892;2022-12-24T03:45:28;99486.63;;;8.41;100.00
16694;BME280;39538;52.196;9.892;2022-12-24T03:47:54;99481.25;;;8.42;100.00
16694;BME280;39538;52.196;9.892;2022-12-24T03:50:23;99492.53;;;8.44;100.00
16694;BME280;39538;52.196;9.892;2022-12-24T03:52:49;99488.94;;;8.46;100.00
16694;BME280;39538;52.196;9.892;2022-12-24T03:55:16;99496.63;;;8.49;100.00
16694;BME280;39538;52.196;9.892;2022-12-24T03:57:42;99497.59;;;8.48;100.00
16694;BME280;39538;52.196;9.892;2022-12-24T04:00:09;99507.22;;;8.49;100.00
16694;BME280;39538;52.196;9.892;2022-12-24T04:02:36;99518.28;;;8.54;100.00
16694;BME280;39538;52.196;9.892;2022-12-24T04:05:03;99515.13;;;8.60;100.00
16694;BME280;39538;52.196;9.892;2022-12-24T04:07:32;99528.34;;;8.60;100.00
16694;BME280;39538;52.196;9.892;2022-12-24T04:09:58;99533.06;;;8.56;100.00
16694;BME280;39538;52.196;9.892;2022-12-24T04:12:24;99540.03;;;8.57;100.00
16694;BME280;39538;52.196;9.892;2022-12-24T04:14:51;99546.19;;;8.58;100.00
16694;BME280;39538;52.196;9.892;2022-12-24T04:17:17;99547.25;;;8.55;100.00
16694;BME280;39538;52.196;9.892;2022-12-24T04:19:43;99553.50;;;8.54;100.00
16694;BME280;39538;52.196;9.892;2022-12-24T04:22:10;99544.13;;;8.50;100.00
16694;BME280;39538;52.196;9.892;2022-12-24T04:24:37;99551.09;;;8.51;100.00
16694;BME280;39538;52.196;9.892;2022-12-24T04:27:04;99570.19;;;8.43;100.00
16694;BME280;39538;52.196;9.892;2022-12-24T04:29:30;99557.09;;;8.42;100.00
16694;BME280;39538;52.196;9.892;2022-12-24T04:31:57;99562.72;;;8.37;100.00
16694;BME280;39538;52.196;9.892;2022-12-24T04:34:23;99565.56;;;8.34;100.00
16694;BME280;39538;52.196;9.892;2022-12-24T04:36:49;99577.13;;;8.33;100.00
16694;BME280;39538;52.196;9.892;2022-12-24T04:39:16;99579.66;;;8.35;100.00
16694;BME280;39538;52.196;9.892;2022-12-24T04:41:43;99580.25;;;8.38;100.00
16694;BME280;39538;52.196;9.892;2022-12-24T04:44:10;99585.47;;;8.40;100.00
16694;BME280;39538;52.196;9.892;2022-12-24T04:46:36;99581.75;;;8.42;100.00
16694;BME280;39538;52.196;9.892;2022-12-24T04:49:02;99579.09;;;8.42;100.00
16694;BME280;39538;52.196;9.892;2022-12-24T04:51:29;99580.78;;;8.43;100.00
16694;BME280;39538;52.196;9.892;2022-12-24T04:53:56;99592.31;;;8.42;100.00
16694;BME280;39538;52.196;9.892;2022-12-24T04:56:24;99583.56;;;8.42;100.00
16694;BME280;39538;52.196;9.892;2022-12-24T04:58:53;99592.66;;;8.38;100.00
16694;BME280;39538;52.196;9.892;2022-12-24T05:01:21;99591.31;;;8.32;100.00
16694;BME280;39538;52.196;9.892;2022-12-24T05:03:49;99587.44;;;8.25;100.00
16694;BME280;39538;52.196;9.892;2022-12-24T05:06:17;99582.38;;;8.22;100.00
16694;BME280;39538;52.196;9.892;2022-12-24T05:08:45;99586.94;;;8.20;100.00
16694;BME280;39538;52.196;9.892;2022-12-24T05:11:11;99598.38;;;8.20;100.00
16694;BME280;39538;52.196;9.892;2022-12-24T05:13:39;99597.16;;;8.24;100.00
16694;BME280;39538;52.196;9.892;2022-12-24T05:16:08;99608.38;;;8.28;100.00
16694;BME280;39538;52.196;9.892;2022-12-24T05:18:34;99615.97;;;8.33;100.00
16694;BME280;39538;52.196;9.892;2022-12-24T05:21:01;99614.16;;;8.33;100.00
16694;BME280;39538;52.196;9.892;2022-12-24T05:23:27;99619.53;;;8.32;100.00
16694;BME280;39538;52.196;9.892;2022-12-24T05:26:14;99622.09;;;8.33;100.00
16694;BME280;39538;52.196;9.892;2022-12-24T05:28:47;99612.59;;;8.31;100.00
16694;BME280;39538;52.196;9.892;2022-12-24T05:31:15;99627.63;;;8.30;100.00
16694;BME280;39538;52.196;9.892;2022-12-24T05:33:41;99624.44;;;8.25;100.00
16694;BME280;39538;52.196;9.892;2022-12-24T05:36:08;99630.69;;;8.24;100.00
16694;BME280;39538;52.196;9.892;2022-12-24T05:38:34;99642.25;;;8.23;100.00
16694;BME280;39538;52.196;9.892;2022-12-24T05:41:01;99645.84;;;8.22;100.00
16694;BME280;39538;52.196;9.892;2022-12-24T05:43:27;99646.56;;;8.24;100.00
16694;BME280;39538;52.196;9.892;2022-12-24T05:45:57;99644.28;;;8.19;100.00
16694;BME280;39538;52.196;9.892;2022-12-24T05:48:24;99651.38;;;8.19;100.00
16694;BME280;39538;52.196;9.892;2022-12-24T05:50:51;99662.66;;;8.21;100.00
16694;BME280;39538;52.196;9.892;2022-12-24T05:53:17;99657.25;;;8.22;100.00
16694;BME280;39538;52.196;9.892;2022-12-24T05:55:44;99656.88;;;8.16;100.00
16694;BME280;39538;52.196;9.892;2022-12-24T05:58:10;99660.72;;;8.12;100.00
16694;BME280;39538;52.196;9.892;2022-12-24T06:00:37;99681.22;;;8.08;100.00
16694;BME280;39538;52.196;9.892;2022-12-24T06:03:03;99682.31;;;8.06;100.00
16694;BME280;39538;52.196;9.892;2022-12-24T06:05:31;99680.38;;;8.08;100.00
16694;BME280;39538;52.196;9.892;2022-12-24T06:07:57;99679.94;;;8.14;100.00
16694;BME280;39538;52.196;9.892;2022-12-24T06:10:24;99678.75;;;8.18;100.00
16694;BME280;39538;52.196;9.892;2022-12-24T06:12:50;99678.41;;;8.22;100.00
16694;BME280;39538;52.196;9.892;2022-12-24T06:15:17;99685.78;;;8.30;100.00
16694;BME280;39538;52.196;9.892;2022-12-24T06:17:43;99690.44;;;8.27;100.00
16694;BME280;39538;52.196;9.892;2022-12-24T06:20:10;99700.94;;;8.28;100.00
16694;BME280;39538;52.196;9.892;2022-12-24T06:22:38;99702.59;;;8.29;100.00
16694;BME280;39538;52.196;9.892;2022-12-24T06:25:05;99705.25;;;8.29;100.00
16694;BME280;39538;52.196;9.892;2022-12-24T06:27:31;99704.50;;;8.27;100.00
16694;BME280;39538;52.196;9.892;2022-12-24T06:29:58;99705.47;;;8.26;100.00
16694;BME280;39538;52.196;9.892;2022-12-24T06:32:24;99694.06;;;8.26;100.00
16694;BME280;39538;52.196;9.892;2022-12-24T06:34:50;99689.63;;;8.26;100.00
16694;BME280;39538;52.196;9.892;2022-12-24T06:37:17;99689.38;;;8.29;100.00
16694;BME280;39538;52.196;9.892;2022-12-24T06:39:45;99699.75;;;8.32;100.00
16694;BME280;39538;52.196;9.892;2022-12-24T06:42:11;99703.34;;;8.31;100.00
16694;BME280;39538;52.196;9.892;2022-12-24T06:44:38;99710.31;;;8.32;100.00
16694;BME280;39538;52.196;9.892;2022-12-24T06:47:04;99719.53;;;8.27;100.00
16694;BME280;39538;52.196;9.892;2022-12-24T06:49:31;99716.28;;;8.23;100.00
16694;BME280;39538;52.196;9.892;2022-12-24T06:51:57;99708.06;;;8.15;100.00
16694;BME280;39538;52.196;9.892;2022-12-24T06:54:24;99716.09;;;8.13;100.00
16694;BME280;39538;52.196;9.892;2022-12-24T06:56:51;99724.38;;;8.09;100.00
16694;BME280;39538;52.196;9.892;2022-12-24T06:59:18;99727.56;;;8.01;100.00
16694;BME280;39538;52.196;9.892;2022-12-24T07:01:44;99736.97;;;8.05;100.00
16694;BME280;39538;52.196;9.892;2022-12-24T07:04:11;99745.66;;;8.07;100.00
16694;BME280;39538;52.196;9.892;2022-12-24T07:06:37;99745.50;;;8.09;100.00
16694;BME280;39538;52.196;9.892;2022-12-24T07:09:03;99747.31;;;8.08;100.00
16694;BME280;39538;52.196;9.892;2022-12-24T07:11:30;99757.28;;;8.05;100.00
16694;BME280;39538;52.196;9.892;2022-12-24T07:13:58;99770.69;;;8.01;100.00
16694;BME280;39538;52.196;9.892;2022-12-24T07:16:24;99783.09;;;8.01;100.00
16694;BME280;39538;52.196;9.892;2022-12-24T07:18:50;99782.75;;;8.06;100.00
16694;BME280;39538;52.196;9.892;2022-12-24T07:21:17;99788.28;;;8.02;100.00
16694;BME280;39538;52.196;9.892;2022-12-24T07:23:43;99788.28;;;8.02;100.00
16694;BME280;39538;52.196;9.892;2022-12-24T07:26:10;99790.91;;;8.02;100.00
16694;BME280;39538;52.196;9.892;2022-12-24T07:28:36;99790.41;;;7.97;100.00
16694;BME280;39538;52.196;9.892;2022-12-24T07:31:05;99797.69;;;7.94;100.00
16694;BME280;39538;52.196;9.892;2022-12-24T07:33:31;99809.22;;;7.93;100.00
16694;BME280;39538;52.196;9.892;2022-12-24T07:35:59;99810.06;;;7.93;100.00
16694;BME280;39538;52.196;9.892;2022-12-24T07:38:26;99812.19;;;7.88;100.00
16694;BME280;39538;52.196;9.892;2022-12-24T07:40:52;99815.59;;;7.90;100.00
16694;BME280;39538;52.196;9.892;2022-12-24T07:43:19;99818.94;;;7.92;100.00
16694;BME280;39538;52.196;9.892;2022-12-24T07:45:45;99825.69;;;7.96;100.00
16694;BME280;39538;52.196;9.892;2022-12-24T07:48:13;99829.91;;;7.99;100.00
16694;BME280;39538;52.196;9.892;2022-12-24T07:50:39;99833.63;;;7.96;100.00
16694;BME280;39538;52.196;9.892;2022-12-24T07:53:06;99826.53;;;7.97;100.00
16694;BME280;39538;52.196;9.892;2022-12-24T07:55:32;99831.13;;;7.95;100.00
16694;BME280;39538;52.196;9.892;2022-12-24T07:57:59;99829.50;;;7.92;100.00
16694;BME280;39538;52.196;9.892;2022-12-24T08:00:25;99836.72;;;7.90;100.00
16694;BME280;39538;52.196;9.892;2022-12-24T08:02:51;99842.72;;;7.92;100.00
16694;BME280;39538;52.196;9.892;2022-12-24T08:05:19;99842.22;;;7.87;100.00
16694;BME280;39538;52.196;9.892;2022-12-24T08:07:46;99850.03;;;7.89;100.00
16694;BME280;39538;52.196;9.892;2022-12-24T08:10:12;99850.13;;;7.87;100.00
16694;BME280;39538;52.196;9.892;2022-12-24T08:12:39;99852.25;;;7.95;100.00
16694;BME280;39538;52.196;9.892;2022-12-24T08:15:06;99850.88;;;8.02;100.00
16694;BME280;39538;52.196;9.892;2022-12-24T08:17:32;99858.25;;;8.10;100.00
16694;BME280;39538;52.196;9.892;2022-12-24T08:19:59;99863.72;;;8.19;100.00
16694;BME280;39538;52.196;9.892;2022-12-24T08:22:26;99865.44;;;8.20;100.00
16694;BME280;39538;52.196;9.892;2022-12-24T08:24:54;99872.16;;;8.24;100.00
16694;BME280;39538;52.196;9.892;2022-12-24T08:27:20;99877.91;;;8.18;100.00
16694;BME280;39538;52.196;9.892;2022-12-24T08:29:47;99879.69;;;8.18;100.00
16694;BME280;39538;52.196;9.892;2022-12-24T08:32:13;99877.03;;;8.18;100.00
16694;BME280;39538;52.196;9.892;2022-12-24T08:34:40;99888.38;;;8.20;100.00
16694;BME280;39538;52.196;9.892;2022-12-24T08:37:06;99897.78;;;8.24;100.00
16694;BME280;39538;52.196;9.892;2022-12-24T08:39:34;99897.44;;;8.29;100.00
16694;BME280;39538;52.196;9.892;2022-12-24T08:42:00;99898.28;;;8.29;100.00
16694;BME280;39538;52.196;9.892;2022-12-24T08:44:26;99906.03;;;8.32;100.00
16694;BME280;39538;52.196;9.892;2022-12-24T08:46:53;99906.53;;;8.37;100.00
16694;BME280;39538;52.196;9.892;2022-12-24T08:49:19;99915.75;;;8.44;100.00
16694;BME280;39538;52.196;9.892;2022-12-24T08:51:46;99911.53;;;8.42;100.00
16694;BME280;39538;52.196;9.892;2022-12-24T08:54:13;99913.84;;;8.47;100.00
16694;BME280;39538;52.196;9.892;2022-12-24T08:56:40;99922.53;;;8.49;100.00
16694;BME280;39538;52.196;9.892;2022-12-24T08:59:07;99934.03;;;8.48;100.00
16694;BME280;39538;52.196;9.892;2022-12-24T09:01:33;99925.28;;;8.47;100.00
16694;BME280;39538;52.196;9.892;2022-12-24T09:04:00;99924.19;;;8.50;100.00
16694;BME280;39538;52.196;9.892;2022-12-24T09:06:27;99924.38;;;8.59;100.00
16694;BME280;39538;52.196;9.892;2022-12-24T09:08:53;99933.38;;;8.57;100.00
16694;BME280;39538;52.196;9.892;2022-12-24T09:11:20;99939.41;;;8.59;100.00
16694;BME280;39538;52.196;9.892;2022-12-24T09:13:48;99948.31;;;8.58;100.00
16694;BME280;39538;52.196;9.892;2022-12-24T09:16:14;99949.78;;;8.62;100.00
16694;BME280;39538;52.196;9.892;2022-12-24T09:18:41;99953.63;;;8.58;100.00
16694;BME280;39538;52.196;9.892;2022-12-24T09:21:09;99959.94;;;8.68;100.00
16694;BME280;39538;52.196;9.892;2022-12-24T09:23:39;99968.59;;;8.70;100.00
16694;BME280;39538;52.196;9.892;2022-12-24T09:26:06;99969.34;;;8.72;100.00
16694;BME280;39538;52.196;9.892;2022-12-24T09:28:33;99968.81;;;8.67;100.00
16694;BME280;39538;52.196;9.892;2022-12-24T09:31:02;99976.22;;;8.75;100.00
16694;BME280;39538;52.196;9.892;2022-12-24T09:33:30;99980.03;;;8.83;100.00
16694;BME280;39538;52.196;9.892;2022-12-24T09:35:57;99983.38;;;8.85;100.00
16694;BME280;39538;52.196;9.892;2022-12-24T09:38:24;99982.94;;;8.92;100.00
16694;BME280;39538;52.196;9.892;2022-12-24T09:40:52;99989.91;;;8.93;100.00
16694;BME280;39538;52.196;9.892;2022-12-24T09:43:20;99998.22;;;8.88;100.00
16694;BME280;39538;52.196;9.892;2022-12-24T09:45:55;99990.59;;;8.83;100.00
16694;BME280;39538;52.196;9.892;2022-12-24T09:48:29;99980.84;;;8.84;100.00
16694;BME280;39538;52.196;9.892;2022-12-24T09:51:00;99993.03;;;8.86;100.00
16694;BME280;39538;52.196;9.892;2022-12-24T09:53:33;99994.81;;;8.86;100.00
16694;BME280;39538;52.196;9.892;2022-12-24T09:56:05;100001.78;;;9.00;100.00
16694;BME280;39538;52.196;9.892;2022-12-24T09:58:34;100007.34;;;9.08;100.00
16694;BME280;39538;52.196;9.892;2022-12-24T10:01:02;100009.09;;;9.20;100.00
16694;BME280;39538;52.196;9.892;2022-12-24T10:03:30;100012.97;;;9.27;100.00
16694;BME280;39538;52.196;9.892;2022-12-24T10:06:04;100019.47;;;9.23;100.00
16694;BME280;39538;52.196;9.892;2022-12-24T10:08:43;100021.16;;;9.24;100.00
16694;BME280;39538;52.196;9.892;2022-12-24T10:11:17;100029.00;;;9.26;100.00
16694;BME280;39538;52.196;9.892;2022-12-24T10:14:01;100030.69;;;9.27;100.00
16694;BME280;39538;52.196;9.892;2022-12-24T10:16:36;100020.00;;;9.28;100.00
16694;BME280;39538;52.196;9.892;2022-12-24T10:19:13;100028.78;;;9.29;100.00
16694;BME280;39538;52.196;9.892;2022-12-24T10:21:47;100026.03;;;9.31;100.00
16694;BME280;39538;52.196;9.892;2022-12-24T10:24:20;100033.22;;;9.28;100.00
16694;BME280;39538;52.196;9.892;2022-12-24T10:26:51;100038.03;;;9.23;100.00
16694;BME280;39538;52.196;9.892;2022-12-24T10:29:25;100038.22;;;9.20;100.00
16694;BME280;39538;52.196;9.892;2022-12-24T10:31:55;100039.19;;;9.19;100.00
16694;BME280;39538;52.196;9.892;2022-12-24T10:34:29;100041.34;;;9.14;100.00
16694;BME280;39538;52.196;9.892;2022-12-24T10:36:59;100035.81;;;9.17;100.00
16694;BME280;39538;52.196;9.892;2022-12-24T10:39:28;100030.41;;;9.43;100.00
16694;BME280;39538;52.196;9.892;2022-12-24T10:41:56;100041.34;;;9.62;100.00
16694;BME280;39538;52.196;9.892;2022-12-24T10:44:27;100039.56;;;9.63;100.00
16694;BME280;39538;52.196;9.892;2022-12-24T10:46:54;100038.41;;;9.54;100.00
16694;BME280;39538;52.196;9.892;2022-12-24T10:49:28;100032.09;;;9.44;100.00
16694;BME280;39538;52.196;9.892;2022-12-24T10:52:00;100036.63;;;9.31;100.00
16694;BME280;39538;52.196;9.892;2022-12-24T10:54:28;100049.78;;;9.19;100.00
16694;BME280;39538;52.196;9.892;2022-12-24T10:57:04;100053.09;;;9.10;100.00
16694;BME280;39538;52.196;9.892;2022-12-24T10:59:41;100066.16;;;9.00;100.00
16694;BME280;39538;52.196;9.892;2022-12-24T11:02:25;100057.06;;;8.92;100.00
16694;BME280;39538;52.196;9.892;2022-12-24T11:04:54;100067.56;;;8.93;100.00
16694;BME280;39538;52.196;9.892;2022-12-24T11:07:22;100062.53;;;9.01;100.00
16694;BME280;39538;52.196;9.892;2022-12-24T11:09:55;100071.78;;;8.96;100.00
16694;BME280;39538;52.196;9.892;2022-12-24T11:12:22;100074.44;;;8.96;100.00
16694;BME280;39538;52.196;9.892;2022-12-24T11:14:59;100074.13;;;8.88;100.00
16694;BME280;39538;52.196;9.892;2022-12-24T11:17:26;100077.22;;;8.81;100.00
16694;BME280;39538;52.196;9.892;2022-12-24T11:19:54;100072.75;;;8.69;100.00
16694;BME280;39538;52.196;9.892;2022-12-24T11:22:23;100075.31;;;8.58;100.00
16694;BME280;39538;52.196;9.892;2022-12-24T11:24:57;100072.34;;;8.50;100.00
16694;BME280;39538;52.196;9.892;2022-12-24T11:27:31;100078.34;;;8.39;100.00
16694;BME280;39538;52.196;9.892;2022-12-24T11:30:19;100083.75;;;8.37;100.00
16694;BME280;39538;52.196;9.892;2022-12-24T11:32:47;100067.44;;;8.31;100.00
16694;BME280;39538;52.196;9.892;2022-12-24T11:35:17;100068.91;;;8.22;100.00
16694;BME280;39538;52.196;9.892;2022-12-24T11:37:46;100073.69;;;8.17;100.00
16694;BME280;39538;52.196;9.892;2022-12-24T11:40:19;100071.44;;;8.11;100.00
16694;BME280;39538;52.196;9.892;2022-12-24T11:42:46;100082.00;;;8.11;100.00
16694;BME280;39538;52.196;9.892;2022-12-24T11:45:21;100081.47;;;8.06;100.00
16694;BME280;39538;52.196;9.892;2022-12-24T11:47:47;100079.91;;;8.03;100.00
16694;BME280;39538;52.196;9.892;2022-12-24T11:50:21;100084.88;;;7.95;100.00
16694;BME280;39538;52.196;9.892;2022-12-24T11:52:51;100086.84;;;7.91;100.00
16694;BME280;39538;52.196;9.892;2022-12-24T11:55:25;100082.31;;;7.93;100.00
16694;BME280;39538;52.196;9.892;2022-12-24T11:57:57;100098.91;;;7.95;100.00
16694;BME280;39538;52.196;9.892;2022-12-24T12:00:27;100086.44;;;7.97;100.00
16694;BME280;39538;52.196;9.892;2022-12-24T12:02:55;100092.28;;;8.02;100.00
16694;BME280;39538;52.196;9.892;2022-12-24T12:05:29;100090.56;;;8.01;100.00
16694;BME280;39538;52.196;9.892;2022-12-24T12:08:04;100092.44;;;7.99;100.00
16694;BME280;39538;52.196;9.892;2022-12-24T12:10:36;100100.81;;;7.93;100.00
16694;BME280;39538;52.196;9.892;2022-12-24T12:13:10;100095.91;;;7.87;100.00
16694;BME280;39538;52.196;9.892;2022-12-24T12:15:40;100100.28;;;7.88;100.00
16694;BME280;39538;52.196;9.892;2022-12-24T12:18:12;100097.50;;;7.90;100.00
16694;BME280;39538;52.196;9.892;2022-12-24T12:20:42;100098.16;;;7.93;100.00
16694;BME280;39538;52.196;9.892;2022-12-24T12:23:13;100099.84;;;7.94;100.00
16694;BME280;39538;52.196;9.892;2022-12-24T12:25:45;100095.53;;;7.93;100.00
16694;BME280;39538;52.196;9.892;2022-12-24T12:28:19;100104.00;;;7.98;100.00
16694;BME280;39538;52.196;9.892;2022-12-24T12:30:54;100098.09;;;8.08;100.00
16694;BME280;39538;52.196;9.892;2022-12-24T12:33:30;100102.22;;;8.12;100.00
16694;BME280;39538;52.196;9.892;2022-12-24T12:36:01;100106.16;;;8.19;100.00
16694;BME280;39538;52.196;9.892;2022-12-24T12:38:28;100111.00;;;8.25;100.00
16694;BME280;39538;52.196;9.892;2022-12-24T12:41:01;100110.59;;;8.31;100.00
16694;BME280;39538;52.196;9.892;2022-12-24T12:43:44;100109.47;;;8.35;100.00
16694;BME280;39538;52.196;9.892;2022-12-24T12:46:20;100116.81;;;8.44;100.00
16694;BME280;39538;52.196;9.892;2022-12-24T12:49:05;100106.13;;;8.59;100.00
16694;BME280;39538;52.196;9.892;2022-12-24T12:51:41;100107.72;;;8.74;100.00
16694;BME280;39538;52.196;9.892;2022-12-24T12:54:21;100107.06;;;8.83;100.00
16694;BME280;39538;52.196;9.892;2022-12-24T12:56:54;100104.53;;;8.82;100.00
16694;BME280;39538;52.196;9.892;2022-12-24T12:59:29;100100.06;;;8.82;100.00
16694;BME280;39538;52.196;9.892;2022-12-24T13:02:02;100108.22;;;8.79;100.00
16694;BME280;39538;52.196;9.892;2022-12-24T13:04:57;100116.28;;;8.78;100.00
16694;BME280;39538;52.196;9.892;2022-12-24T13:07:53;100117.00;;;8.67;100.00
16694;BME280;39538;52.196;9.892;2022-12-24T13:10:39;100115.34;;;8.53;100.00
16694;BME280;39538;52.196;9.892;2022-12-24T13:16:31;100117.66;;;8.58;100.00